Flight Track Log - Related Links

Times and Time Zones

All times are in EDT time to prevent confusion due to time zone crossing. See the N265JB flight status page for this flight to view local times or setup timezone preferences in your user account.

Time Position Orientation Groundspeed Altitude Reporting Facility
EDT Latitude Longitude Course Direction KTS MPH feet Rate Location/Type
Wed 01:46:15 PM 40.6184 -73.7517 164° South  Level FlightAware Approximate
Wed 01:47:15 PM 40.5221 -73.6609 305° West  Level FlightAware Approximate
Wed 01:48:41 PM 40.5581 -73.7294 118° Southeast 202 232 3,300  Level New York Center
Wed 01:49:41 PM 40.5225 -73.6433 131° Southeast 242 278 6,700 2,826 Climbing New York Center
Wed 01:50:42 PM 40.4803 -73.5786 151° Southeast 258 297 9,000 2,182 Climbing New York Center
Wed 01:51:42 PM 40.4025 -73.5211 150° Southeast 282 325 11,100 2,339 Climbing New York Center
Wed 01:52:40 PM 40.3269 -73.4636 150° Southeast 328 377 13,600 2,370 Climbing New York Center
Wed 01:53:41 PM 40.2306 -73.3917 149° Southeast 359 413 15,800 2,164 Climbing New York Center
Wed 01:54:42 PM 40.1464 -73.3261 189° South 380 437 18,000 2,370 Climbing New York Center
Wed 01:55:40 PM 40.0439 -73.3467 198° South 362 417 20,500 2,100 Climbing New York Center
Wed 01:56:42 PM 39.9431 -73.3889 216° Southwest 360 414 22,200 1,071 Climbing New York Center
Wed 01:58:00 PM 39.8264 -73.4978 223° Southwest 377 434 23,000 1,295 Climbing Washington Center
Wed 01:59:01 PM 39.7428 -73.6000 226° Southwest 383 441 25,200 1,525 Climbing Washington Center
Wed 02:00:02 PM 39.6672 -73.7019 224° Southwest 383 441 26,100 1,210 Climbing Washington Center
Wed 02:01:00 PM 39.5856 -73.8036 224° Southwest 395 455 27,600 1,412 Climbing Washington Center
Wed 02:02:01 PM 39.5017 -73.9078 224° Southwest 407 468 28,900 1,131 Climbing Washington Center
Wed 02:03:02 PM 39.4175 -74.0147 220° Southwest 414 476 29,900 1,131 Climbing Washington Center
Wed 02:04:03 PM 39.3250 -74.1133 220° Southwest 430 495 31,200 1,169 Climbing Washington Center
Wed 02:05:00 PM 39.2344 -74.2117 221° Southwest 437 503 32,200 966 Climbing Washington Center
Wed 02:06:01 PM 39.1400 -74.3178 219° Southwest 437 503 33,100 942 Climbing Washington Center
Wed 02:07:01 PM 39.0469 -74.4156 220° Southwest 437 503 34,100 942 Climbing Washington Center
Wed 02:08:02 PM 38.9542 -74.5158 220° Southwest 442 509 35,000 843 Climbing Washington Center
Wed 02:09:02 PM 38.8614 -74.6158 219° Southwest 442 509 35,800 508 Climbing Washington Center
Wed 02:10:00 PM 38.7642 -74.7158 220° Southwest 448 516 36,000 102 Climbing Washington Center
Wed 02:11:00 PM 38.6689 -74.8178 221° Southwest 448 516 36,000  Level Washington Center
Wed 02:12:01 PM 38.5758 -74.9225 219° Southwest 448 516 36,000  Level Washington Center
Wed 02:13:01 PM 38.4783 -75.0242 218° Southwest 454 522 36,000  Level Washington Center
Wed 02:14:01 PM 38.3828 -75.1203 213° Southwest 454 522 36,000  Level Washington Center
Wed 02:15:02 PM 38.2892 -75.1975 213° Southwest 454 522 36,000  Level Washington Center
Wed 02:16:02 PM 38.1811 -75.2853 213° Southwest 459 528 36,000  Level Washington Center
Wed 02:17:03 PM 38.0769 -75.3728 213° Southwest 459 528 36,000  Level Washington Center
Wed 02:18:00 PM 37.9728 -75.4600 214° Southwest 459 528 36,000  Level Washington Center
Wed 02:19:01 PM 37.8667 -75.5497 214° Southwest 459 528 36,000  Level Washington Center
Wed 02:20:01 PM 37.7622 -75.6392 213° Southwest 459 528 36,000  Level Washington Center
Wed 02:21:01 PM 37.6581 -75.7231 214° Southwest 459 528 36,000  Level Washington Center
Wed 02:22:03 PM 37.5536 -75.8119 214° Southwest 459 528 36,000  Level Washington Center
Wed 02:23:00 PM 37.4492 -75.9006 213° Southwest 459 528 36,000  Level Washington Center
Wed 02:24:01 PM 37.3425 -75.9864 213° Southwest 459 528 36,000  Level Washington Center
Wed 02:25:02 PM 37.2336 -76.0744 213° Southwest 459 528 36,000  Level Washington Center
Wed 02:26:02 PM 37.1269 -76.1622 212° Southwest 459 528 36,000  Level Washington Center
Wed 02:27:02 PM 37.0158 -76.2500 213° Southwest 459 528 36,000  Level Washington Center
Wed 02:28:00 PM 36.9089 -76.3375 213° Southwest 459 528 36,000  Level Washington Center
Wed 02:29:00 PM 36.8000 -76.4272 214° Southwest 459 528 36,000  Level Washington Center
Wed 02:30:01 PM 36.6928 -76.5167 213° Southwest 459 528 36,000  Level Washington Center
Wed 02:31:02 PM 36.5817 -76.6058 212° Southwest 464 534 36,000  Level Washington Center
Wed 02:32:02 PM 36.4722 -76.6922 213° Southwest 464 534 36,000  Level Washington Center
Wed 02:33:00 PM 36.3589 -76.7836 213° Southwest 464 534 36,000  Level Washington Center
Wed 02:34:01 PM 36.2472 -76.8719 213° Southwest 474 545 36,000  Level Washington Center
Wed 02:35:01 PM 36.1378 -76.9603 212° Southwest 474 545 36,000  Level Washington Center
Wed 02:36:02 PM 36.0242 -77.0483 213° Southwest 487 560 36,000  Level Washington Center
Wed 02:37:01 PM 35.9167 -77.1358 212° Southwest 482 555 36,000  Level Washington Center
Wed 02:38:01 PM 35.8050 -77.2208 213° Southwest 477 549 36,000  Level Washington Center
Wed 02:39:02 PM 35.6953 -77.3081 212° Southwest 476 548 36,000  Level Washington Center
Wed 02:40:00 PM 35.5856 -77.3928 213° Southwest 476 548 36,000  Level Washington Center
Wed 02:41:01 PM 35.4756 -77.4794 213° Southwest 481 554 36,000  Level Washington Center
Wed 02:42:02 PM 35.3550 -77.5758 220° Southwest 486 559 36,000  Level Washington Center
Wed 02:43:00 PM 35.2575 -77.6753 220° Southwest 476 548 36,000  Level Washington Center
Wed 02:44:01 PM 35.1575 -77.7769 220° Southwest 469 540 36,000  Level Washington Center
Wed 02:45:02 PM 35.0575 -77.8808 220° Southwest 464 534 36,000  Level Washington Center
Wed 02:46:02 PM 34.9597 -77.9819 221° Southwest 464 534 36,000  Level Washington Center
Wed 02:47:00 PM 34.8636 -78.0828 222° Southwest 464 534 36,000  Level Washington Center
Wed 02:48:01 PM 34.7717 -78.1836 219° Southwest 457 526 36,000 -347 Level Washington Center
Wed 02:49:01 PM 34.6714 -78.2839 221° Southwest 457 526 35,300 -793 Descending Washington Center
Wed 02:50:02 PM 34.5753 -78.3842 217° Southwest 462 532 34,400 -839 Descending Washington Center
Wed 02:50:34 PM 34.5372 -78.4189 220° Southwest 466 536 34,000 -261 Descending Jacksonville Center
Wed 02:51:34 PM 34.4186 -78.5408 220° Southwest 458 527 34,000  Level Jacksonville Center
Wed 02:52:34 PM 34.3217 -78.6386 220° Southwest 463 533 34,000  Level Jacksonville Center
Wed 02:53:34 PM 34.2228 -78.7389 221° Southwest 463 533 34,000  Level Jacksonville Center
Wed 02:54:34 PM 34.1239 -78.8414 218° Southwest 469 540 34,000  Level Jacksonville Center
Wed 02:55:34 PM 34.0247 -78.9361 220° Southwest 469 540 34,000  Level Jacksonville Center
Wed 02:56:34 PM 33.9278 -79.0358 219° Southwest 469 540 34,000  Level Jacksonville Center
Wed 02:57:34 PM 33.8283 -79.1325 220° Southwest 469 540 34,000  Level Jacksonville Center
Wed 02:58:34 PM 33.7331 -79.2292 216° Southwest 464 534 34,000  Level Jacksonville Center
Wed 02:59:34 PM 33.6417 -79.3103 221° Southwest 459 528 34,000  Level Jacksonville Center
Wed 03:00:34 PM 33.5464 -79.4086 219° Southwest 459 528 34,000  Level Jacksonville Center
Wed 03:01:34 PM 33.4467 -79.5047 219° Southwest 459 528 34,000  Level Jacksonville Center
Wed 03:02:34 PM 33.3489 -79.5981 219° Southwest 459 528 34,000  Level Jacksonville Center
Wed 03:03:34 PM 33.2492 -79.6961 219° Southwest 459 528 34,000 -450 Level Jacksonville Center
Wed 03:04:34 PM 33.1514 -79.7914 218° Southwest 459 528 33,100 -950 Descending Jacksonville Center
Wed 03:05:34 PM 33.0556 -79.8814 219° Southwest 459 528 32,100 -550 Descending Jacksonville Center
Wed 03:06:34 PM 32.9556 -79.9764 218° Southwest 459 528 32,000 -50 Descending Jacksonville Center
Wed 03:07:34 PM 32.8553 -80.0686 214° Southwest 459 528 32,000  Level Jacksonville Center
Wed 03:08:34 PM 32.7486 -80.1533 213° Southwest 464 534 32,000 -500 Level Jacksonville Center
Wed 03:09:34 PM 32.6397 -80.2381 212° Southwest 469 540 31,000 -1,000 Descending Jacksonville Center
Wed 03:10:34 PM 32.5308 -80.3200 213° Southwest 469 540 30,000 -500 Descending Jacksonville Center
Wed 03:11:34 PM 32.4239 -80.4019 214° Southwest 469 540 30,000  Level Jacksonville Center
Wed 03:12:34 PM 32.3169 -80.4858 214° Southwest 469 540 30,000  Level Jacksonville Center
Wed 03:13:34 PM 32.2039 -80.5750 213° Southwest 454 522 30,000  Level Jacksonville Center
Wed 03:14:34 PM 32.0989 -80.6561 213° Southwest 459 528 30,000 -150 Level Jacksonville Center
Wed 03:15:34 PM 32.0039 -80.7294 214° Southwest 459 528 29,700 -1,400 Descending Jacksonville Center
Wed 03:16:34 PM 31.8906 -80.8178 213° Southwest 459 528 27,200 -2,350 Descending Jacksonville Center
Wed 03:17:34 PM 31.7917 -80.8931 211° Southwest 445 512 25,000 -2,150 Descending Jacksonville Center
Wed 03:18:34 PM 31.7028 -80.9561 213° Southwest 427 491 22,900 -2,050 Descending Jacksonville Center
Wed 03:19:34 PM 31.6017 -81.0339 212° Southwest 404 465 20,900 -1,900 Descending Jacksonville Center
Wed 03:20:34 PM 31.5211 -81.0939 213° Southwest 399 459 19,100 -1,950 Descending Jacksonville Center
Wed 03:21:34 PM 31.4219 -81.1689 212° Southwest 399 459 17,000 -1,850 Descending Jacksonville Center
Wed 03:22:34 PM 31.3392 -81.2289 212° Southwest 389 448 15,400 -1,750 Descending Jacksonville Center
Wed 03:23:34 PM 31.2544 -81.2911 213° Southwest 383 441 13,500 -1,900 Descending Jacksonville Center
Wed 03:24:34 PM 31.1697 -81.3556 212° Southwest 377 434 11,600 -1,750 Descending Jacksonville Center
Wed 03:25:34 PM 31.0869 -81.4153 209° Southwest 366 421 10,000 -1,067 Descending Jacksonville Center
Wed 03:26:04 PM 31.0414 -81.4450 190° South 339 390 10,000  Level Jacksonville Center
Wed 03:26:34 PM 31.0017 -81.4528 188° South 347 399 10,000  Level Jacksonville Center
Wed 03:27:05 PM 30.9517 -81.4608 194° South 313 360 10,000 -516 Level Jacksonville Center
Wed 03:28:07 PM 30.8622 -81.4864 196° South 298 343 9,200 -1,266 Descending Jacksonville Center
Wed 03:29:13 PM 30.7769 -81.5144 194° South 287 330 7,300 -1,228 Descending Jacksonville Center
Wed 03:30:14 PM 30.7061 -81.5347 177° South 249 287 6,600 -1,172 Descending Jacksonville Center
Wed 03:31:21 PM 30.6372 -81.5308 181° South 227 261 4,800 -1,734 Descending Jacksonville Center
Wed 03:32:22 PM 30.5767 -81.5317 218° Southwest 215 247 2,900 -1,353 Descending Jacksonville Center
Wed 03:33:34 PM 30.5331 -81.5708 253° West 180 207 1,800 -934 Descending Jacksonville Center
Wed 03:34:24 PM 30.5211 -81.6169 249° West 149 171 1,000 -792 Descending Jacksonville Center
Wed 03:35:20 PM 30.5089 -81.6533 249° West 129 148 400 -643 Descending Jacksonville Center

Login

Don't have an account? Register now (free) for customized features, flight alerts, and more!